createdAt,value
2018-09-15T00:01:20.770Z,14.77
2018-09-15T00:03:49.830Z,14.75
2018-09-15T00:06:18.666Z,14.67
2018-09-15T00:08:47.776Z,14.82
2018-09-15T00:11:16.967Z,14.86
2018-09-15T00:13:45.907Z,14.90
2018-09-15T00:16:14.764Z,14.86
2018-09-15T00:18:43.585Z,14.90
2018-09-15T00:21:12.396Z,15.06
2018-09-15T00:23:41.495Z,15.10
2018-09-15T00:26:10.096Z,14.83
2018-09-15T00:28:38.820Z,14.81
2018-09-15T00:31:07.916Z,15.05
2018-09-15T00:33:36.711Z,15.19
2018-09-15T00:36:05.727Z,15.07
2018-09-15T00:38:34.840Z,14.92
2018-09-15T00:41:03.657Z,14.91
2018-09-15T00:43:32.314Z,14.87
2018-09-15T00:46:01.667Z,14.98
2018-09-15T00:48:30.590Z,14.90
2018-09-15T00:50:59.378Z,14.94
2018-09-15T00:53:28.400Z,14.79
2018-09-15T00:55:57.088Z,14.95
2018-09-15T00:58:25.762Z,15.18
2018-09-15T01:00:54.726Z,14.89
2018-09-15T01:03:23.612Z,14.92
2018-09-15T01:05:52.203Z,14.98
2018-09-15T01:08:21.416Z,15.06
2018-09-15T01:10:50.211Z,15.08
2018-09-15T01:13:19.292Z,15.03
2018-09-15T01:15:48.208Z,15.07
2018-09-15T01:18:16.973Z,15.11
2018-09-15T01:20:46.157Z,15.05
2018-09-15T01:23:14.911Z,14.90
2018-09-15T01:25:43.799Z,15.04
2018-09-15T01:28:12.800Z,14.84
2018-09-15T01:30:41.445Z,14.60
2018-09-15T01:33:10.345Z,14.37
2018-09-15T01:35:39.461Z,14.31
2018-09-15T01:38:08.291Z,14.26
2018-09-15T01:40:37.311Z,14.27
2018-09-15T01:43:06.502Z,14.27
2018-09-15T01:45:35.411Z,14.28
2018-09-15T01:48:04.517Z,14.32
2018-09-15T01:50:33.625Z,14.31
2018-09-15T01:53:02.935Z,14.31
2018-09-15T01:55:31.589Z,14.44
2018-09-15T01:58:00.599Z,14.25
2018-09-15T02:00:29.575Z,14.25
2018-09-15T02:02:58.474Z,14.10
2018-09-15T02:05:27.599Z,14.04
2018-09-15T02:07:56.302Z,14.07
2018-09-15T02:10:25.354Z,14.10
2018-09-15T02:12:54.454Z,14.09
2018-09-15T02:15:23.309Z,14.07
2018-09-15T02:17:52.330Z,14.15
2018-09-15T02:20:21.126Z,14.34
2018-09-15T02:22:49.797Z,14.42
2018-09-15T02:25:18.455Z,14.53
2018-09-15T02:27:47.521Z,14.52
2018-09-15T02:30:16.345Z,14.58
2018-09-15T02:32:45.560Z,14.57
2018-09-15T02:35:14.515Z,14.58
2018-09-15T02:37:43.642Z,14.52
2018-09-15T02:40:12.706Z,14.54
2018-09-15T02:42:41.485Z,14.57
2018-09-15T02:45:10.211Z,14.55
2018-09-15T02:47:39.291Z,14.47
2018-09-15T02:50:08.472Z,14.30
2018-09-15T02:52:37.158Z,14.06
2018-09-15T02:55:06.228Z,13.93
2018-09-15T02:57:35.282Z,13.81
2018-09-15T03:00:03.920Z,13.88
2018-09-15T03:02:33.120Z,13.72
2018-09-15T03:05:01.758Z,13.71
2018-09-15T03:07:30.721Z,13.71
2018-09-15T03:10:00.019Z,13.70
2018-09-15T03:12:28.900Z,13.88
2018-09-15T03:14:57.682Z,13.80
2018-09-15T03:17:26.588Z,13.58
2018-09-15T03:19:55.647Z,13.53
2018-09-15T03:22:24.454Z,13.65
2018-09-15T03:24:53.631Z,13.94
2018-09-15T03:27:22.635Z,14.07
2018-09-15T03:29:51.499Z,13.94
2018-09-15T03:32:20.876Z,14.04
2018-09-15T03:34:50.159Z,14.10
2018-09-15T03:37:19.142Z,14.09
2018-09-15T03:39:48.423Z,13.84
2018-09-15T03:42:17.237Z,13.63
2018-09-15T03:44:46.244Z,13.60
2018-09-15T03:47:15.158Z,13.65
2018-09-15T03:49:44.121Z,13.65
2018-09-15T03:52:12.749Z,13.56
2018-09-15T03:54:41.531Z,13.44
2018-09-15T03:57:10.284Z,13.43
2018-09-15T03:59:39.185Z,13.35
2018-09-15T04:02:08.288Z,13.32
2018-09-15T04:04:37.527Z,12.98
2018-09-15T04:07:06.310Z,13.35
2018-09-15T04:09:35.638Z,13.46
2018-09-15T04:12:05.495Z,13.46
2018-09-15T04:14:34.479Z,13.34
2018-09-15T04:17:03.798Z,13.47
2018-09-15T04:19:32.548Z,13.64
2018-09-15T04:22:01.288Z,13.76
2018-09-15T04:24:30.051Z,13.75
2018-09-15T04:26:58.903Z,13.91
2018-09-15T04:29:27.690Z,14.11
2018-09-15T04:31:56.855Z,14.23
2018-09-15T04:34:25.490Z,14.17
2018-09-15T04:36:54.398Z,14.13
2018-09-15T04:39:23.412Z,14.16
2018-09-15T04:41:52.046Z,14.22
2018-09-15T04:44:20.916Z,14.24
2018-09-15T04:46:50.088Z,14.18
2018-09-15T04:49:18.994Z,14.21
2018-09-15T04:51:48.039Z,14.13
2018-09-15T04:54:17.590Z,14.14
2018-09-15T04:56:46.627Z,14.15
2018-09-15T04:59:16.119Z,14.28
2018-09-15T05:01:44.772Z,14.46
2018-09-15T05:04:14.069Z,14.60
2018-09-15T05:06:43.282Z,14.40
2018-09-15T05:09:13.223Z,14.59
2018-09-15T05:11:42.970Z,14.63
2018-09-15T05:14:11.792Z,14.67
2018-09-15T05:16:40.557Z,14.80
2018-09-15T05:19:09.860Z,14.89
2018-09-15T05:21:38.521Z,14.96
2018-09-15T05:24:07.490Z,15.10
2018-09-15T05:26:36.923Z,15.32
2018-09-15T05:29:06.012Z,15.39
2018-09-15T05:31:35.063Z,15.31
2018-09-15T05:34:04.522Z,15.39
2018-09-15T05:36:33.329Z,15.49
2018-09-15T05:39:02.314Z,15.71
2018-09-15T05:41:31.115Z,15.81
2018-09-15T05:43:59.966Z,15.99
2018-09-15T05:46:29.066Z,15.93
2018-09-15T05:48:58.485Z,16.14
2018-09-15T05:51:27.195Z,16.22
2018-09-15T05:53:55.855Z,16.29
2018-09-15T05:56:25.177Z,16.46
2018-09-15T05:58:54.161Z,16.44
2018-09-15T06:01:23.165Z,16.69
2018-09-15T06:03:52.354Z,16.77
2018-09-15T06:06:21.321Z,16.90
2018-09-15T06:08:50.230Z,16.81
2018-09-15T06:11:19.368Z,16.92
2018-09-15T06:13:52.513Z,17.27
2018-09-15T06:16:21.723Z,17.23
2018-09-15T06:18:50.880Z,17.56
2018-09-15T06:21:19.731Z,17.66
2018-09-15T06:23:48.759Z,17.73
2018-09-15T06:26:17.590Z,17.71
2018-09-15T06:28:46.526Z,17.85
2018-09-15T06:31:15.184Z,18.09
2018-09-15T06:33:43.970Z,18.21
2018-09-15T06:36:12.826Z,18.47
2018-09-15T06:38:41.774Z,18.81
2018-09-15T06:41:10.708Z,18.75
2018-09-15T06:43:39.448Z,18.92
2018-09-15T06:46:08.521Z,19.05
2018-09-15T06:48:37.461Z,19.19
2018-09-15T06:51:06.171Z,19.18
2018-09-15T06:53:35.064Z,19.34
2018-09-15T06:56:03.783Z,19.35
2018-09-15T06:58:32.786Z,19.34
2018-09-15T07:01:02.012Z,19.37
2018-09-15T07:03:30.755Z,19.58
2018-09-15T07:05:59.496Z,19.85
2018-09-15T07:08:28.342Z,19.75
2018-09-15T07:10:56.930Z,19.88
2018-09-15T07:13:25.607Z,19.91
2018-09-15T07:15:54.586Z,20.14
2018-09-15T07:18:23.185Z,20.39
2018-09-15T07:20:52.060Z,20.34
2018-09-15T07:23:21.242Z,20.33
2018-09-15T07:25:50.395Z,20.56
2018-09-15T07:28:19.467Z,21.02
2018-09-15T07:30:48.458Z,21.24
2018-09-15T07:33:17.508Z,21.21
2018-09-15T07:35:46.255Z,21.19
2018-09-15T07:38:15.142Z,21.26
2018-09-15T07:40:44.414Z,21.42
2018-09-15T07:43:13.487Z,21.66
2018-09-15T07:45:42.456Z,21.76
2018-09-15T07:48:11.293Z,21.96
2018-09-15T07:50:39.967Z,21.90
2018-09-15T07:53:09.091Z,22.10
2018-09-15T07:55:38.362Z,22.28
2018-09-15T07:58:07.243Z,22.28
2018-09-15T08:00:36.140Z,22.04
2018-09-15T08:03:04.979Z,21.99
2018-09-15T08:05:33.946Z,22.15
2018-09-15T08:08:02.873Z,22.64
2018-09-15T08:10:31.776Z,22.79
2018-09-15T08:13:00.910Z,23.08
2018-09-15T08:15:29.613Z,23.11
2018-09-15T08:17:58.475Z,22.96
2018-09-15T08:20:27.151Z,23.33
2018-09-15T08:22:55.822Z,23.95
2018-09-15T08:25:25.018Z,24.05
2018-09-15T08:27:53.783Z,24.40
2018-09-15T08:30:22.896Z,24.71
2018-09-15T08:32:51.890Z,24.82
2018-09-15T08:35:21.023Z,25.08
2018-09-15T08:37:49.953Z,25.35
2018-09-15T08:40:19.094Z,25.57
2018-09-15T08:42:48.383Z,25.97
2018-09-15T08:45:18.226Z,25.87
2018-09-15T08:47:47.294Z,26.21
2018-09-15T08:50:16.208Z,26.39
2018-09-15T08:52:44.862Z,26.55
2018-09-15T08:55:13.539Z,26.68
2018-09-15T08:57:42.514Z,27.08
2018-09-15T09:00:11.470Z,26.65
2018-09-15T09:02:40.223Z,26.77
2018-09-15T09:05:09.288Z,27.00
2018-09-15T09:07:38.214Z,26.74
2018-09-15T09:10:07.558Z,26.80
2018-09-15T09:12:36.391Z,26.67
2018-09-15T09:15:05.466Z,25.91
2018-09-15T09:17:34.350Z,25.47
2018-09-15T09:20:03.176Z,25.70
2018-09-15T09:22:32.010Z,26.22
2018-09-15T09:25:00.838Z,26.10
2018-09-15T09:27:29.701Z,25.80
2018-09-15T09:29:58.582Z,25.91
2018-09-15T09:32:27.436Z,26.10
2018-09-15T09:34:57.116Z,25.90
2018-09-15T09:37:25.954Z,25.93
2018-09-15T09:39:54.934Z,26.31
2018-09-15T09:42:24.222Z,26.63
2018-09-15T09:44:53.134Z,25.64
2018-09-15T09:47:22.488Z,26.35
2018-09-15T09:49:51.482Z,26.28
2018-09-15T09:52:20.238Z,26.39
2018-09-15T09:54:49.066Z,26.66
2018-09-15T09:57:18.064Z,27.18
2018-09-15T09:59:46.922Z,27.63
2018-09-15T10:02:19.250Z,27.86
2018-09-15T10:04:48.093Z,27.88
2018-09-15T10:07:17.019Z,27.49
2018-09-15T10:09:45.930Z,27.99
2018-09-15T10:12:14.934Z,28.08
2018-09-15T10:14:44.070Z,28.18
2018-09-15T10:17:13.323Z,28.11
2018-09-15T10:19:42.243Z,27.29
2018-09-15T10:22:10.958Z,26.73
2018-09-15T10:24:39.782Z,27.47
2018-09-15T10:27:08.867Z,27.46
2018-09-15T10:29:37.720Z,28.46
2018-09-15T10:32:06.841Z,28.29
2018-09-15T10:34:35.879Z,28.47
2018-09-15T10:37:04.762Z,28.80
2018-09-15T10:39:33.440Z,28.36
2018-09-15T10:42:02.338Z,28.92
2018-09-15T10:44:31.504Z,29.52
2018-09-15T10:47:00.794Z,29.88
2018-09-15T10:49:29.595Z,29.75
2018-09-15T10:51:58.527Z,30.20
2018-09-15T10:54:27.311Z,30.14
2018-09-15T10:56:56.169Z,29.32
2018-09-15T10:59:25.251Z,29.28
2018-09-15T11:01:53.838Z,28.77
2018-09-15T11:04:22.574Z,29.02
2018-09-15T11:06:51.639Z,29.81
2018-09-15T11:09:20.479Z,30.48
2018-09-15T11:11:49.209Z,29.81
2018-09-15T11:14:18.082Z,30.04
2018-09-15T11:16:47.086Z,29.96
2018-09-15T11:19:15.720Z,30.11
2018-09-15T11:21:44.472Z,29.77
2018-09-15T11:24:13.122Z,30.43
2018-09-15T11:26:42.085Z,30.91
2018-09-15T11:29:11.283Z,30.03
2018-09-15T11:31:40.180Z,29.76
2018-09-15T11:34:09.075Z,30.59
2018-09-15T11:36:37.708Z,31.01
2018-09-15T11:39:09.095Z,30.24
2018-09-15T11:41:38.103Z,31.24
2018-09-15T11:44:07.163Z,30.39
2018-09-15T11:46:36.207Z,30.29
2018-09-15T11:49:05.355Z,30.54
2018-09-15T11:51:34.097Z,30.25
2018-09-15T11:54:02.854Z,29.98
2018-09-15T11:56:32.721Z,29.75
2018-09-15T11:59:01.419Z,29.88
2018-09-15T12:01:30.386Z,30.17
2018-09-15T12:03:59.178Z,30.33
2018-09-15T12:06:27.814Z,30.22
2018-09-15T12:08:56.534Z,29.57
2018-09-15T12:11:25.615Z,30.36
2018-09-15T12:13:54.591Z,30.30
2018-09-15T12:16:23.614Z,30.30
2018-09-15T12:18:52.518Z,29.52
2018-09-15T12:21:21.273Z,29.84
2018-09-15T12:23:49.996Z,29.76
2018-09-15T12:26:18.891Z,29.62
2018-09-15T12:28:48.018Z,28.78
2018-09-15T12:31:16.835Z,28.97
2018-09-15T12:33:45.895Z,29.77
2018-09-15T12:36:14.808Z,29.31
2018-09-15T12:38:43.751Z,29.96
2018-09-15T12:41:12.804Z,29.75
2018-09-15T12:43:41.692Z,28.95
2018-09-15T12:46:10.382Z,28.72
2018-09-15T12:48:39.359Z,29.50
2018-09-15T12:51:08.027Z,29.35
2018-09-15T12:53:36.662Z,29.78
2018-09-15T12:56:05.441Z,29.90
2018-09-15T12:58:34.166Z,30.59
2018-09-15T13:01:03.759Z,30.48
2018-09-15T13:03:34.707Z,29.78
2018-09-15T13:06:03.851Z,29.26
2018-09-15T13:08:32.742Z,29.71
2018-09-15T13:11:01.738Z,28.99
2018-09-15T13:13:30.879Z,28.70
2018-09-15T13:15:59.804Z,28.53
2018-09-15T13:18:28.768Z,28.59
2018-09-15T13:20:57.623Z,28.40
2018-09-15T13:23:26.597Z,28.17
2018-09-15T13:25:55.508Z,29.07
2018-09-15T13:28:25.960Z,28.81
2018-09-15T13:31:00.402Z,29.03
2018-09-15T13:33:29.399Z,29.06
2018-09-15T13:35:58.318Z,28.81
2018-09-15T13:38:27.560Z,28.32
2018-09-15T13:40:56.644Z,28.16
2018-09-15T13:43:25.572Z,28.19
2018-09-15T13:45:54.474Z,28.38
2018-09-15T13:48:23.602Z,28.67
2018-09-15T13:50:52.753Z,28.67
2018-09-15T13:53:21.560Z,28.60
2018-09-15T13:55:50.203Z,28.52
2018-09-15T13:58:19.012Z,28.54
2018-09-15T14:00:47.912Z,28.54
2018-09-15T14:03:16.978Z,28.70
2018-09-15T14:05:45.811Z,28.91
2018-09-15T14:08:16.027Z,28.81
2018-09-15T14:10:45.980Z,28.84
2018-09-15T14:13:16.899Z,28.67
2018-09-15T14:15:45.848Z,28.95
2018-09-15T14:18:15.060Z,28.92
2018-09-15T14:20:43.882Z,28.25
2018-09-15T14:23:12.655Z,28.11
2018-09-15T14:25:41.559Z,28.50
2018-09-15T14:28:10.732Z,28.47
2018-09-15T14:30:39.486Z,28.45
2018-09-15T14:33:09.475Z,27.51
2018-09-15T14:35:39.074Z,27.76
2018-09-15T14:38:08.163Z,27.53
2018-09-15T14:40:37.506Z,27.36
2018-09-15T14:43:06.598Z,27.33
2018-09-15T14:45:35.254Z,27.20
2018-09-15T14:48:04.464Z,27.26
2018-09-15T14:50:34.687Z,27.20
2018-09-15T14:53:03.754Z,27.35
2018-09-15T14:55:33.282Z,27.24
2018-09-15T14:58:02.451Z,26.98
2018-09-15T15:00:31.231Z,26.80
2018-09-15T15:03:02.600Z,26.74
2018-09-15T15:05:32.153Z,26.84
2018-09-15T15:08:01.147Z,26.83
2018-09-15T15:10:30.079Z,26.64
2018-09-15T15:12:59.522Z,26.58
2018-09-15T15:15:28.610Z,26.70
2018-09-15T15:17:57.502Z,26.82
2018-09-15T15:20:26.679Z,26.76
2018-09-15T15:22:55.356Z,26.49
2018-09-15T15:25:24.039Z,26.41
2018-09-15T15:27:52.850Z,26.14
2018-09-15T15:30:21.824Z,25.96
2018-09-15T15:32:50.653Z,26.26
2018-09-15T15:35:19.850Z,26.00
2018-09-15T15:37:48.729Z,25.89
2018-09-15T15:40:17.883Z,25.65
2018-09-15T15:42:47.140Z,25.62
2018-09-15T15:45:16.170Z,25.60
2018-09-15T15:47:45.175Z,25.46
2018-09-15T15:50:14.487Z,25.48
2018-09-15T15:52:43.202Z,25.47
2018-09-15T15:55:11.953Z,25.03
2018-09-15T15:57:40.975Z,24.85
2018-09-15T16:00:10.038Z,24.99
2018-09-15T16:02:38.791Z,24.92
2018-09-15T16:05:08.327Z,24.99
2018-09-15T16:07:37.205Z,24.85
2018-09-15T16:10:06.424Z,24.67
2018-09-15T16:12:36.018Z,24.60
2018-09-15T16:15:05.426Z,24.51
2018-09-15T16:17:34.539Z,24.55
2018-09-15T16:20:03.559Z,24.56
2018-09-15T16:22:32.279Z,24.64
2018-09-15T16:25:01.347Z,24.07
2018-09-15T16:27:30.066Z,23.66
2018-09-15T16:29:58.730Z,23.32
2018-09-15T16:32:27.835Z,22.71
2018-09-15T16:34:57.183Z,22.42
2018-09-15T16:37:26.303Z,22.19
2018-09-15T16:39:55.088Z,21.89
2018-09-15T16:42:24.306Z,21.44
2018-09-15T16:44:53.173Z,20.95
2018-09-15T16:47:22.049Z,20.80
2018-09-15T16:49:51.161Z,20.53
2018-09-15T16:52:19.880Z,19.85
2018-09-15T16:54:48.948Z,19.53
2018-09-15T16:57:17.578Z,19.38
2018-09-15T16:59:46.246Z,19.30
2018-09-15T17:02:14.948Z,19.38
2018-09-15T17:04:44.223Z,19.30
2018-09-15T17:07:13.300Z,19.23
2018-09-15T17:09:42.126Z,19.30
2018-09-15T17:12:11.420Z,19.21
2018-09-15T17:14:40.188Z,19.13
2018-09-15T17:17:09.183Z,19.10
2018-09-15T17:19:38.510Z,19.15
2018-09-15T17:22:07.260Z,19.23
2018-09-15T17:24:36.369Z,19.28
2018-09-15T17:27:05.378Z,19.31
2018-09-15T17:29:34.156Z,19.39
2018-09-15T17:32:02.822Z,19.36
2018-09-15T17:34:32.056Z,19.34
2018-09-15T17:37:01.131Z,19.32
2018-09-15T17:39:29.967Z,19.29
2018-09-15T17:41:58.931Z,19.42
2018-09-15T17:44:28.053Z,19.42
2018-09-15T17:46:56.843Z,19.49
2018-09-15T17:49:25.574Z,19.55
2018-09-15T17:51:54.527Z,19.58
2018-09-15T17:54:23.464Z,19.62
2018-09-15T17:56:52.255Z,19.76
2018-09-15T17:59:21.131Z,19.76
2018-09-15T18:01:49.824Z,19.73
2018-09-15T18:04:18.949Z,19.93
2018-09-15T18:06:48.425Z,19.97
2018-09-15T18:09:17.151Z,19.86
2018-09-15T18:11:45.751Z,19.88
2018-09-15T18:14:15.175Z,19.97
2018-09-15T18:16:44.408Z,20.01
2018-09-15T18:19:12.994Z,20.05
2018-09-15T18:21:41.781Z,20.14
2018-09-15T18:24:10.726Z,20.19
2018-09-15T18:26:39.626Z,20.19
2018-09-15T18:29:08.299Z,20.07
2018-09-15T18:31:37.226Z,19.89
2018-09-15T18:34:05.890Z,19.74
2018-09-15T18:36:34.674Z,19.79
2018-09-15T18:39:04.081Z,19.66
2018-09-15T18:41:32.928Z,19.75
2018-09-15T18:44:01.759Z,19.83
2018-09-15T18:46:30.508Z,19.95
2018-09-15T18:48:59.339Z,19.83
2018-09-15T18:51:28.773Z,19.74
2018-09-15T18:53:57.887Z,19.82
2018-09-15T18:56:27.016Z,19.84
2018-09-15T18:58:56.407Z,19.83
2018-09-15T19:01:25.223Z,19.83
2018-09-15T19:03:53.806Z,19.89
2018-09-15T19:06:22.850Z,19.89
2018-09-15T19:08:51.657Z,19.95
2018-09-15T19:11:20.442Z,20.01
2018-09-15T19:13:49.339Z,20.09
2018-09-15T19:16:18.442Z,20.08
2018-09-15T19:18:47.051Z,20.19
2018-09-15T19:21:15.976Z,20.24
2018-09-15T19:23:45.119Z,20.21
2018-09-15T19:26:14.110Z,20.27
2018-09-15T19:28:42.995Z,20.18
2018-09-15T19:31:12.042Z,20.24
2018-09-15T19:33:40.680Z,20.23
2018-09-15T19:36:09.671Z,20.12
2018-09-15T19:38:38.999Z,20.15
2018-09-15T19:41:08.062Z,20.19
2018-09-15T19:43:36.790Z,20.31
2018-09-15T19:46:05.867Z,20.15
2018-09-15T19:48:35.122Z,20.24
2018-09-15T19:51:04.191Z,20.23
2018-09-15T19:53:33.367Z,20.24
2018-09-15T19:56:02.242Z,20.27
2018-09-15T19:58:31.128Z,20.17
2018-09-15T20:01:00.897Z,20.07
2018-09-15T20:03:29.681Z,20.05
2018-09-15T20:05:58.395Z,19.97
2018-09-15T20:08:27.563Z,20.02
2018-09-15T20:10:56.350Z,19.90
2018-09-15T20:13:25.088Z,19.78
2018-09-15T20:15:52.771Z,19.72
2018-09-15T20:18:20.223Z,19.61
2018-09-15T20:20:47.678Z,19.60
2018-09-15T20:23:16.412Z,17.82
2018-09-15T20:25:45.590Z,19.51
2018-09-15T20:28:14.883Z,19.55
2018-09-15T20:30:43.851Z,19.50
2018-09-15T20:33:12.530Z,19.47
2018-09-15T20:35:41.409Z,19.36
2018-09-15T20:38:10.509Z,19.31
2018-09-15T20:40:39.554Z,19.25
2018-09-15T20:43:08.803Z,19.22
2018-09-15T20:45:37.850Z,19.23
2018-09-15T20:48:06.913Z,19.16
2018-09-15T20:50:36.134Z,19.11
2018-09-15T20:53:04.805Z,19.10
2018-09-15T20:55:33.781Z,19.02
2018-09-15T20:58:03.051Z,19.01
2018-09-15T21:00:32.102Z,19.08
2018-09-15T21:03:00.758Z,19.01
2018-09-15T21:05:30.124Z,18.99
2018-09-15T21:07:58.790Z,18.96
2018-09-15T21:10:27.562Z,18.87
2018-09-15T21:12:56.725Z,18.84
2018-09-15T21:15:25.643Z,18.83
2018-09-15T21:17:54.445Z,18.75
2018-09-15T21:20:23.638Z,18.74
2018-09-15T21:22:52.409Z,18.72
2018-09-15T21:25:21.051Z,18.82
2018-09-15T21:27:49.974Z,18.74
2018-09-15T21:30:20.233Z,18.70
2018-09-15T21:32:49.094Z,18.69
2018-09-15T21:35:17.671Z,18.80
2018-09-15T21:37:46.645Z,18.80
2018-09-15T21:40:15.347Z,18.74
2018-09-15T21:42:44.259Z,18.71
2018-09-15T21:45:13.375Z,18.82
2018-09-15T21:47:42.298Z,18.76
2018-09-15T21:50:11.171Z,18.80
2018-09-15T21:52:40.186Z,18.74
2018-09-15T21:55:09.449Z,18.71
2018-09-15T21:57:38.230Z,18.70
2018-09-15T22:00:09.291Z,18.64
2018-09-15T22:02:38.747Z,18.67
2018-09-15T22:05:07.762Z,18.57
2018-09-15T22:07:36.714Z,18.52
2018-09-15T22:10:05.865Z,18.47
2018-09-15T22:12:34.915Z,18.44
2018-09-15T22:15:04.163Z,18.41
2018-09-15T22:17:33.278Z,18.36
2018-09-15T22:20:02.127Z,18.32
2018-09-15T22:22:31.130Z,18.45
2018-09-15T22:25:00.027Z,18.55
2018-09-15T22:27:29.168Z,18.56
2018-09-15T22:29:57.997Z,18.57
2018-09-15T22:32:26.704Z,18.70
2018-09-15T22:35:02.303Z,18.73
2018-09-15T22:37:31.596Z,18.78
2018-09-15T22:40:00.239Z,18.86
2018-09-15T22:42:28.978Z,18.80
2018-09-15T22:44:58.071Z,18.76
2018-09-15T22:47:27.636Z,18.71
2018-09-15T22:49:56.878Z,18.67
2018-09-15T22:52:25.848Z,18.64
2018-09-15T22:54:54.925Z,18.64
2018-09-15T22:57:24.015Z,18.47
2018-09-15T22:59:52.753Z,18.47
2018-09-15T23:02:21.555Z,18.64
2018-09-15T23:04:50.745Z,18.61
2018-09-15T23:07:19.869Z,18.48
2018-09-15T23:09:48.541Z,18.45
2018-09-15T23:12:17.338Z,18.42
2018-09-15T23:14:46.064Z,18.57
2018-09-15T23:17:14.681Z,18.55
2018-09-15T23:19:43.674Z,18.47
2018-09-15T23:22:12.469Z,18.53
2018-09-15T23:24:41.527Z,18.52
2018-09-15T23:27:10.747Z,18.40
2018-09-15T23:29:39.503Z,18.48
2018-09-15T23:32:08.514Z,18.46
2018-09-15T23:34:37.783Z,18.38
2018-09-15T23:37:06.737Z,18.37
2018-09-15T23:39:35.680Z,18.36
2018-09-15T23:44:40.239Z,18.22
2018-09-15T23:47:09.237Z,18.17
2018-09-15T23:49:37.959Z,18.05
2018-09-15T23:52:06.712Z,18.01
2018-09-15T23:54:35.883Z,17.95
2018-09-15T23:57:04.870Z,18.12
2018-09-15T23:59:33.782Z,18.07
